Maris — 5BVJ4 — position and weather

sailwx.info

Track history (hours):
 
Tides and Currents Weather Stations Pressure Air Temp Water Temp Dewpoint Dewpoint Depression Visibility Wind Speed Wind Dir Waves Ship Positions

Maris

Last reported at 2017-Dec-09 22:39 UTC. Time now 2017-Dec-12 16:13 UTC.
Position N 41°04' W 008°47'.

Length 101 m; draft 6.1 m.

Type: Ship (hazmat cat A). MMSI: 212833000.

Date/timePositionNaut miles runAvg speedWind from/ knotsBaromVisibWave heightAir tempDewpointWater temp
2017-Dec-09 22:39N 41°04' W 008°47'212.9
2017-Dec-09 22:30N 41°06' W 008°46'611.4
2017-Dec-09 22:01N 41°11' W 008°42'0 0.8
2017-Dec-09 21:31N 41°11' W 008°42'0 0.0
2017-Dec-09 20:58N 41°11' W 008°42'0 0.0
2017-Dec-09 20:31N 41°11' W 008°42'0 0.0
2017-Dec-09 19:58N 41°11' W 008°42'0 0.0
2017-Dec-09 19:28N 41°11' W 008°42'0 0.0
2017-Dec-09 19:01N 41°11' W 008°42'0 0.0
2017-Dec-09 18:30N 41°11' W 008°42'0 0.0
2017-Dec-09 18:00N 41°11' W 008°42'0 0.0
2017-Dec-09 17:30N 41°11' W 008°42'0 0.0
2017-Dec-09 17:00N 41°11' W 008°42'0 0.0
2017-Dec-09 16:30N 41°11' W 008°42'0 0.0
2017-Dec-09 16:00N 41°11' W 008°42'0 0.0
2017-Dec-09 15:30N 41°11' W 008°42'0 0.0
2017-Dec-09 15:00N 41°11' W 008°42'0 0.0
2017-Dec-09 14:30N 41°11' W 008°42'0 0.0
2017-Dec-09 14:00N 41°11' W 008°42'0 0.0
2017-Dec-09 13:30N 41°11' W 008°42'0 0.0
2017-Dec-09 13:00N 41°11' W 008°42'0 0.0
2017-Dec-09 12:30N 41°11' W 008°42'0 0.0
2017-Dec-09 12:00N 41°11' W 008°42'0 0.0
2017-Dec-09 11:30N 41°11' W 008°42'0 0.0
2017-Dec-09 10:57N 41°11' W 008°42'0 0.0
2017-Dec-09 10:30N 41°11' W 008°42'0 0.0
2017-Dec-09 10:00N 41°11' W 008°42'0 0.0
2017-Dec-09 09:27N 41°11' W 008°42'0 0.0
2017-Dec-09 09:00N 41°11' W 008°42'0 0.0
2017-Dec-09 08:30N 41°11' W 008°42'0 0.0
2017-Dec-09 08:00N 41°11' W 008°42'0 0.0
2017-Dec-09 07:30N 41°11' W 008°42'0 0.0
2017-Dec-09 07:00N 41°11' W 008°42'0 0.0
2017-Dec-09 06:30N 41°11' W 008°42'0 0.0
2017-Dec-09 06:00N 41°11' W 008°42'0 0.0
2017-Dec-09 05:30N 41°11' W 008°42'0 0.0
2017-Dec-09 05:00N 41°11' W 008°42'0 0.0
2017-Dec-09 04:30N 41°11' W 008°42'0 0.0
2017-Dec-09 04:00N 41°11' W 008°42'0 0.0
2017-Dec-09 03:30N 41°11' W 008°42'0 0.0
2017-Dec-09 03:00N 41°11' W 008°42'0 0.0
2017-Dec-09 02:30N 41°11' W 008°42'0 0.0
2017-Dec-09 02:00N 41°11' W 008°42'0 0.0
2017-Dec-09 01:30N 41°11' W 008°42'0 0.0
2017-Dec-09 01:00N 41°11' W 008°42'0 0.0
2017-Dec-09 00:30N 41°11' W 008°42'0 0.0
2017-Dec-09 00:00N 41°11' W 008°42'0 0.0
2017-Dec-08 23:30N 41°11' W 008°42'0 0.0
2017-Dec-08 23:00N 41°11' W 008°42'0 0.0
2017-Dec-08 22:30N 41°11' W 008°42'0 0.0
2017-Dec-08 22:00N 41°11' W 008°42'0 0.0
2017-Dec-08 21:30N 41°11' W 008°42'0 0.0
2017-Dec-08 21:00N 41°11' W 008°42'0 0.0
2017-Dec-08 20:30N 41°11' W 008°42'1 1.4
2017-Dec-08 20:00N 41°11' W 008°42'2 3.5
2017-Dec-08 19:30N 41°09' W 008°44'0 0.7
2017-Dec-08 19:00N 41°09' W 008°45'1 1.1
2017-Dec-08 18:30N 41°09' W 008°44'0 0.5
2017-Dec-08 18:00N 41°09' W 008°44'0 0.8
2017-Dec-08 17:30N 41°09' W 008°45'0 0.2
2017-Dec-08 17:00N 41°09' W 008°45'3 6.1
2017-Dec-08 16:30N 41°06' W 008°45'4 7.4
2017-Dec-08 15:56N 41°03' W 008°49'  
2017-Dec-02 23:12N 41°04' W 008°47'314.9
2017-Dec-02 23:00N 41°06' W 008°45'510.6
2017-Dec-02 22:30N 41°11' W 008°42'0 0.1
2017-Dec-02 22:00N 41°11' W 008°42'0 0.0
2017-Dec-02 21:30N 41°11' W 008°42'0 0.0
2017-Dec-02 21:00N 41°11' W 008°42'0 0.0
2017-Dec-02 20:30N 41°11' W 008°42'0 0.0
2017-Dec-02 20:00N 41°11' W 008°42'0 0.0
2017-Dec-02 19:30N 41°11' W 008°42'0 0.0
2017-Dec-02 19:00N 41°11' W 008°42'0 0.0
2017-Dec-02 18:30N 41°11' W 008°42'0 0.0
2017-Dec-02 18:01N 41°11' W 008°42'0 0.0
2017-Dec-02 17:30N 41°11' W 008°42'0 0.0
2017-Dec-02 17:00N 41°11' W 008°42'0 0.0
2017-Dec-02 16:30N 41°11' W 008°42'0 0.0
2017-Dec-02 16:00N 41°11' W 008°42'0 0.0
2017-Dec-02 15:30N 41°11' W 008°42'0 0.0
2017-Dec-02 15:00N 41°11' W 008°42'0 0.0
2017-Dec-02 14:30N 41°11' W 008°42'0 0.0
2017-Dec-02 14:00N 41°11' W 008°42'0 0.0
2017-Dec-02 13:30N 41°11' W 008°42'0 0.0
2017-Dec-02 13:00N 41°11' W 008°42'0 0.0
2017-Dec-02 12:30N 41°11' W 008°42'0 0.0
2017-Dec-02 12:00N 41°11' W 008°42'0 0.0
2017-Dec-02 11:30N 41°11' W 008°42'0 0.0
2017-Dec-02 11:00N 41°11' W 008°42'0 0.0
2017-Dec-02 10:30N 41°11' W 008°42'0 0.0
2017-Dec-02 10:00N 41°11' W 008°42'0 0.0
2017-Dec-02 09:30N 41°11' W 008°42'0 0.0
2017-Dec-02 09:00N 41°11' W 008°42'0 0.0
2017-Dec-02 08:30N 41°11' W 008°42'0 0.0
2017-Dec-02 08:00N 41°11' W 008°42'0 0.0
2017-Dec-02 07:30N 41°11' W 008°42'0 0.0
2017-Dec-02 07:00N 41°11' W 008°42'0 0.0
2017-Dec-02 06:30N 41°11' W 008°42'0 0.0
2017-Dec-02 06:00N 41°11' W 008°42'0 0.0
2017-Dec-02 05:30N 41°11' W 008°42'0 0.0
2017-Dec-02 05:00N 41°11' W 008°42'0 0.0
2017-Dec-02 04:30N 41°11' W 008°42'0 0.0
2017-Dec-02 04:00N 41°11' W 008°42'0 0.0
2017-Dec-02 03:30N 41°11' W 008°42'0 0.0
2017-Dec-02 03:00N 41°11' W 008°42'0 0.0
2017-Dec-02 02:30N 41°11' W 008°42'0 0.0
2017-Dec-02 02:00N 41°11' W 008°42'0 0.0
2017-Dec-02 01:30N 41°11' W 008°42'0 0.0
2017-Dec-02 01:00N 41°11' W 008°42'0 0.0
2017-Dec-02 00:30N 41°11' W 008°42'0 0.0
2017-Dec-02 00:00N 41°11' W 008°42'0 0.0
2017-Dec-01 23:30N 41°11' W 008°42'0 0.0
2017-Dec-01 23:00N 41°11' W 008°42'0 0.0
2017-Dec-01 22:30N 41°11' W 008°42'0 0.0
2017-Dec-01 22:00N 41°11' W 008°42'0 0.0
2017-Dec-01 21:30N 41°11' W 008°42'0 0.0
2017-Dec-01 21:00N 41°11' W 008°42'0 0.0
2017-Dec-01 20:30N 41°11' W 008°42'0 0.0
2017-Dec-01 20:00N 41°11' W 008°42'0 0.0
2017-Dec-01 19:30N 41°11' W 008°42'0 0.0
2017-Dec-01 19:00N 41°11' W 008°42'0 0.0
2017-Dec-01 18:30N 41°11' W 008°42'0 0.0
2017-Dec-01 18:00N 41°11' W 008°42'0 0.0
2017-Dec-01 17:30N 41°11' W 008°42'0 0.0
2017-Dec-01 17:00N 41°11' W 008°42'0 0.0
2017-Dec-01 16:30N 41°11' W 008°42'0 0.0
2017-Dec-01 16:00N 41°11' W 008°42'0 0.0
2017-Dec-01 15:30N 41°11' W 008°42'0 0.0
2017-Dec-01 15:00N 41°11' W 008°42'0 0.0
2017-Dec-01 14:30N 41°11' W 008°42'0 0.0
2017-Dec-01 14:00N 41°11' W 008°42'0 0.0
2017-Dec-01 13:30N 41°11' W 008°42'0 0.0
2017-Dec-01 13:00N 41°11' W 008°42'0 0.0
2017-Dec-01 12:30N 41°11' W 008°42'0 0.0
2017-Dec-01 12:00N 41°11' W 008°42'0 0.0
2017-Dec-01 11:30N 41°11' W 008°42'0 0.0
2017-Dec-01 11:00N 41°11' W 008°42'0 0.0
2017-Dec-01 10:30N 41°11' W 008°42'0 0.0
2017-Dec-01 10:00N 41°11' W 008°42'0 0.0
2017-Dec-01 09:30N 41°11' W 008°42'0 0.0
2017-Dec-01 09:00N 41°11' W 008°42'0 0.0
2017-Dec-01 08:30N 41°11' W 008°42'1 2.6
2017-Dec-01 08:00N 41°10' W 008°42'3 5.3
2017-Dec-01 07:30N 41°08' W 008°44'1 1.9
2017-Dec-01 07:00N 41°07' W 008°45'1 2.4
2017-Dec-01 06:30N 41°06' W 008°46'3 6.6
2017-Dec-01 05:59N 41°03' W 008°48'  
Track history (hours):
 
Tides and Currents Weather Stations Pressure Air Temp Water Temp Dewpoint Dewpoint Depression Visibility Wind Speed Wind Dir Waves Ship Positions

Maris

Last reported at 2017-Dec-09 22:39 UTC. Time now 2017-Dec-12 16:13 UTC.
Position N 41°04' W 008°47'.

Length 101 m; draft 6.1 m.

Type: Ship (hazmat cat A). MMSI: 212833000.

Date/timePositionNaut miles runAvg speedWind from/ knotsBaromVisibWave heightAir tempDewpointWater temp
2017-Dec-09 22:39N 41°04' W 008°47'212.9
2017-Dec-09 22:30N 41°06' W 008°46'611.4
2017-Dec-09 22:01N 41°11' W 008°42'0 0.8
2017-Dec-09 21:31N 41°11' W 008°42'0 0.0
2017-Dec-09 20:58N 41°11' W 008°42'0 0.0
2017-Dec-09 20:31N 41°11' W 008°42'0 0.0
2017-Dec-09 19:58N 41°11' W 008°42'0 0.0
2017-Dec-09 19:28N 41°11' W 008°42'0 0.0
2017-Dec-09 19:01N 41°11' W 008°42'0 0.0
2017-Dec-09 18:30N 41°11' W 008°42'0 0.0
2017-Dec-09 18:00N 41°11' W 008°42'0 0.0
2017-Dec-09 17:30N 41°11' W 008°42'0 0.0
2017-Dec-09 17:00N 41°11' W 008°42'0 0.0
2017-Dec-09 16:30N 41°11' W 008°42'0 0.0
2017-Dec-09 16:00N 41°11' W 008°42'0 0.0
2017-Dec-09 15:30N 41°11' W 008°42'0 0.0
2017-Dec-09 15:00N 41°11' W 008°42'0 0.0
2017-Dec-09 14:30N 41°11' W 008°42'0 0.0
2017-Dec-09 14:00N 41°11' W 008°42'0 0.0
2017-Dec-09 13:30N 41°11' W 008°42'0 0.0
2017-Dec-09 13:00N 41°11' W 008°42'0 0.0
2017-Dec-09 12:30N 41°11' W 008°42'0 0.0
2017-Dec-09 12:00N 41°11' W 008°42'0 0.0
2017-Dec-09 11:30N 41°11' W 008°42'0 0.0
2017-Dec-09 10:57N 41°11' W 008°42'0 0.0
2017-Dec-09 10:30N 41°11' W 008°42'0 0.0
2017-Dec-09 10:00N 41°11' W 008°42'0 0.0
2017-Dec-09 09:27N 41°11' W 008°42'0 0.0
2017-Dec-09 09:00N 41°11' W 008°42'0 0.0
2017-Dec-09 08:30N 41°11' W 008°42'0 0.0
2017-Dec-09 08:00N 41°11' W 008°42'0 0.0
2017-Dec-09 07:30N 41°11' W 008°42'0 0.0
2017-Dec-09 07:00N 41°11' W 008°42'0 0.0
2017-Dec-09 06:30N 41°11' W 008°42'0 0.0
2017-Dec-09 06:00N 41°11' W 008°42'0 0.0
2017-Dec-09 05:30N 41°11' W 008°42'0 0.0
2017-Dec-09 05:00N 41°11' W 008°42'0 0.0
2017-Dec-09 04:30N 41°11' W 008°42'0 0.0
2017-Dec-09 04:00N 41°11' W 008°42'0 0.0
2017-Dec-09 03:30N 41°11' W 008°42'0 0.0
2017-Dec-09 03:00N 41°11' W 008°42'0 0.0
2017-Dec-09 02:30N 41°11' W 008°42'0 0.0
2017-Dec-09 02:00N 41°11' W 008°42'0 0.0
2017-Dec-09 01:30N 41°11' W 008°42'0 0.0
2017-Dec-09 01:00N 41°11' W 008°42'0 0.0
2017-Dec-09 00:30N 41°11' W 008°42'0 0.0
2017-Dec-09 00:00N 41°11' W 008°42'0 0.0
2017-Dec-08 23:30N 41°11' W 008°42'0 0.0
2017-Dec-08 23:00N 41°11' W 008°42'0 0.0
2017-Dec-08 22:30N 41°11' W 008°42'0 0.0
2017-Dec-08 22:00N 41°11' W 008°42'0 0.0
2017-Dec-08 21:30N 41°11' W 008°42'0 0.0
2017-Dec-08 21:00N 41°11' W 008°42'0 0.0
2017-Dec-08 20:30N 41°11' W 008°42'1 1.4
2017-Dec-08 20:00N 41°11' W 008°42'2 3.5
2017-Dec-08 19:30N 41°09' W 008°44'0 0.7
2017-Dec-08 19:00N 41°09' W 008°45'1 1.1
2017-Dec-08 18:30N 41°09' W 008°44'0 0.5
2017-Dec-08 18:00N 41°09' W 008°44'0 0.8
2017-Dec-08 17:30N 41°09' W 008°45'0 0.2
2017-Dec-08 17:00N 41°09' W 008°45'3 6.1
2017-Dec-08 16:30N 41°06' W 008°45'4 7.4
2017-Dec-08 15:56N 41°03' W 008°49'  
2017-Dec-02 23:12N 41°04' W 008°47'314.9
2017-Dec-02 23:00N 41°06' W 008°45'510.6
2017-Dec-02 22:30N 41°11' W 008°42'0 0.1
2017-Dec-02 22:00N 41°11' W 008°42'0 0.0
2017-Dec-02 21:30N 41°11' W 008°42'0 0.0
2017-Dec-02 21:00N 41°11' W 008°42'0 0.0
2017-Dec-02 20:30N 41°11' W 008°42'0 0.0
2017-Dec-02 20:00N 41°11' W 008°42'0 0.0
2017-Dec-02 19:30N 41°11' W 008°42'0 0.0
2017-Dec-02 19:00N 41°11' W 008°42'0 0.0
2017-Dec-02 18:30N 41°11' W 008°42'0 0.0
2017-Dec-02 18:01N 41°11' W 008°42'0 0.0
2017-Dec-02 17:30N 41°11' W 008°42'0 0.0
2017-Dec-02 17:00N 41°11' W 008°42'0 0.0
2017-Dec-02 16:30N 41°11' W 008°42'0 0.0
2017-Dec-02 16:00N 41°11' W 008°42'0 0.0
2017-Dec-02 15:30N 41°11' W 008°42'0 0.0
2017-Dec-02 15:00N 41°11' W 008°42'0 0.0
2017-Dec-02 14:30N 41°11' W 008°42'0 0.0
2017-Dec-02 14:00N 41°11' W 008°42'0 0.0
2017-Dec-02 13:30N 41°11' W 008°42'0 0.0
2017-Dec-02 13:00N 41°11' W 008°42'0 0.0
2017-Dec-02 12:30N 41°11' W 008°42'0 0.0
2017-Dec-02 12:00N 41°11' W 008°42'0 0.0
2017-Dec-02 11:30N 41°11' W 008°42'0 0.0
2017-Dec-02 11:00N 41°11' W 008°42'0 0.0
2017-Dec-02 10:30N 41°11' W 008°42'0 0.0
2017-Dec-02 10:00N 41°11' W 008°42'0 0.0
2017-Dec-02 09:30N 41°11' W 008°42'0 0.0
2017-Dec-02 09:00N 41°11' W 008°42'0 0.0
2017-Dec-02 08:30N 41°11' W 008°42'0 0.0
2017-Dec-02 08:00N 41°11' W 008°42'0 0.0
2017-Dec-02 07:30N 41°11' W 008°42'0 0.0
2017-Dec-02 07:00N 41°11' W 008°42'0 0.0
2017-Dec-02 06:30N 41°11' W 008°42'0 0.0
2017-Dec-02 06:00N 41°11' W 008°42'0 0.0
2017-Dec-02 05:30N 41°11' W 008°42'0 0.0
2017-Dec-02 05:00N 41°11' W 008°42'0 0.0
2017-Dec-02 04:30N 41°11' W 008°42'0 0.0
2017-Dec-02 04:00N 41°11' W 008°42'0 0.0
2017-Dec-02 03:30N 41°11' W 008°42'0 0.0
2017-Dec-02 03:00N 41°11' W 008°42'0 0.0
2017-Dec-02 02:30N 41°11' W 008°42'0 0.0
2017-Dec-02 02:00N 41°11' W 008°42'0 0.0
2017-Dec-02 01:30N 41°11' W 008°42'0 0.0
2017-Dec-02 01:00N 41°11' W 008°42'0 0.0
2017-Dec-02 00:30N 41°11' W 008°42'0 0.0
2017-Dec-02 00:00N 41°11' W 008°42'0 0.0
2017-Dec-01 23:30N 41°11' W 008°42'0 0.0
2017-Dec-01 23:00N 41°11' W 008°42'0 0.0
2017-Dec-01 22:30N 41°11' W 008°42'0 0.0
2017-Dec-01 22:00N 41°11' W 008°42'0 0.0
2017-Dec-01 21:30N 41°11' W 008°42'0 0.0
2017-Dec-01 21:00N 41°11' W 008°42'0 0.0
2017-Dec-01 20:30N 41°11' W 008°42'0 0.0
2017-Dec-01 20:00N 41°11' W 008°42'0 0.0
2017-Dec-01 19:30N 41°11' W 008°42'0 0.0
2017-Dec-01 19:00N 41°11' W 008°42'0 0.0
2017-Dec-01 18:30N 41°11' W 008°42'0 0.0
2017-Dec-01 18:00N 41°11' W 008°42'0 0.0
2017-Dec-01 17:30N 41°11' W 008°42'0 0.0
2017-Dec-01 17:00N 41°11' W 008°42'0 0.0
2017-Dec-01 16:30N 41°11' W 008°42'0 0.0
2017-Dec-01 16:00N 41°11' W 008°42'0 0.0
2017-Dec-01 15:30N 41°11' W 008°42'0 0.0
2017-Dec-01 15:00N 41°11' W 008°42'0 0.0
2017-Dec-01 14:30N 41°11' W 008°42'0 0.0
2017-Dec-01 14:00N 41°11' W 008°42'0 0.0
2017-Dec-01 13:30N 41°11' W 008°42'0 0.0
2017-Dec-01 13:00N 41°11' W 008°42'0 0.0
2017-Dec-01 12:30N 41°11' W 008°42'0 0.0
2017-Dec-01 12:00N 41°11' W 008°42'0 0.0
2017-Dec-01 11:30N 41°11' W 008°42'0 0.0
2017-Dec-01 11:00N 41°11' W 008°42'0 0.0
2017-Dec-01 10:30N 41°11' W 008°42'0 0.0
2017-Dec-01 10:00N 41°11' W 008°42'0 0.0
2017-Dec-01 09:30N 41°11' W 008°42'0 0.0
2017-Dec-01 09:00N 41°11' W 008°42'0 0.0
2017-Dec-01 08:30N 41°11' W 008°42'1 2.6
2017-Dec-01 08:00N 41°10' W 008°42'3 5.3
2017-Dec-01 07:30N 41°08' W 008°44'1 1.9
2017-Dec-01 07:00N 41°07' W 008°45'1 2.4
2017-Dec-01 06:30N 41°06' W 008°46'3 6.6
2017-Dec-01 05:59N 41°03' W 008°48'  

Dump ship's entire track history